createdAt,value
2023-10-15T00:01:43.745Z,22.90
2023-10-15T00:06:47.138Z,22.90
2023-10-15T00:11:52.509Z,22.80
2023-10-15T00:16:56.045Z,22.80
2023-10-15T00:21:59.538Z,22.80
2023-10-15T00:27:04.987Z,22.70
2023-10-15T00:32:08.453Z,22.70
2023-10-15T00:37:12.204Z,22.70
2023-10-15T00:42:18.015Z,22.60
2023-10-15T00:47:23.251Z,22.60
2023-10-15T00:52:30.662Z,22.50
2023-10-15T00:57:44.329Z,22.50
2023-10-15T01:02:49.004Z,22.40
2023-10-15T01:07:53.214Z,22.30
2023-10-15T01:13:18.477Z,22.30
2023-10-15T01:18:23.799Z,22.30
2023-10-15T01:23:33.214Z,22.20
2023-10-15T01:28:39.048Z,22.20
2023-10-15T01:33:48.627Z,22.20
2023-10-15T01:38:56.114Z,22.10
2023-10-15T01:44:02.569Z,22.00
2023-10-15T01:49:09.000Z,22.00
2023-10-15T01:54:13.458Z,21.90
2023-10-15T01:59:20.409Z,21.90
2023-10-15T02:04:25.492Z,21.90
2023-10-15T02:09:31.423Z,21.90
2023-10-15T02:14:36.403Z,21.80
2023-10-15T02:19:42.386Z,21.90
2023-10-15T02:24:49.197Z,21.90
2023-10-15T02:29:55.570Z,21.90
2023-10-15T02:35:00.229Z,21.80
2023-10-15T02:40:18.107Z,21.80
2023-10-15T02:45:25.423Z,21.80
2023-10-15T02:50:33.136Z,21.80
2023-10-15T02:55:37.963Z,21.70
2023-10-15T03:00:43.892Z,21.70
2023-10-15T03:05:49.027Z,21.70
2023-10-15T03:10:57.720Z,21.70
2023-10-15T03:16:08.774Z,21.60
2023-10-15T03:21:21.218Z,21.70
2023-10-15T03:26:25.666Z,21.70
2023-10-15T03:31:32.547Z,21.60
2023-10-15T03:36:45.749Z,21.60
2023-10-15T03:41:53.804Z,21.60
2023-10-15T03:47:05.674Z,21.60
2023-10-15T03:52:10.334Z,21.50
2023-10-15T03:57:13.990Z,21.40
2023-10-15T04:02:24.590Z,21.40
2023-10-15T04:07:28.182Z,21.30
2023-10-15T04:12:31.819Z,21.20
2023-10-15T04:17:36.650Z,21.10
2023-10-15T04:22:45.661Z,21.10
2023-10-15T04:27:49.077Z,21.00
2023-10-15T04:32:57.552Z,20.90
2023-10-15T04:38:05.253Z,20.90
2023-10-15T04:43:08.968Z,20.80
2023-10-15T04:48:17.177Z,20.70
2023-10-15T04:53:26.183Z,20.70
2023-10-15T04:58:29.813Z,20.60
2023-10-15T05:03:35.782Z,20.60
2023-10-15T05:08:41.724Z,20.50
2023-10-15T05:13:45.435Z,20.50
2023-10-15T05:18:50.328Z,20.40
2023-10-15T05:23:54.040Z,20.30
2023-10-15T05:28:57.407Z,20.30
2023-10-15T05:34:02.161Z,20.30
2023-10-15T05:39:06.150Z,20.20
2023-10-15T05:44:09.687Z,20.10
2023-10-15T05:49:14.698Z,20.10
2023-10-15T05:54:18.274Z,20.10
2023-10-15T05:59:21.736Z,20.00
2023-10-15T06:04:26.775Z,20.00
2023-10-15T06:09:30.335Z,20.00
2023-10-15T06:14:33.973Z,20.00
2023-10-15T06:19:38.882Z,20.00
2023-10-15T06:24:42.395Z,20.00
2023-10-15T06:29:45.869Z,20.00
2023-10-15T06:34:51.264Z,20.00
2023-10-15T06:40:02.000Z,20.00
2023-10-15T06:45:12.259Z,20.00
2023-10-15T06:50:16.992Z,20.10
2023-10-15T06:55:22.560Z,20.10
2023-10-15T07:00:26.928Z,20.20
2023-10-15T07:05:32.021Z,20.20
2023-10-15T07:10:38.339Z,20.20
2023-10-15T07:15:42.044Z,20.30
2023-10-15T07:20:46.822Z,20.30
2023-10-15T07:25:51.098Z,20.30
2023-10-15T07:30:54.613Z,20.30
2023-10-15T07:36:02.984Z,20.30
2023-10-15T07:41:07.506Z,20.30
2023-10-15T07:46:10.979Z,20.40
2023-10-15T07:51:16.345Z,20.40
2023-10-15T07:56:19.862Z,20.40
2023-10-15T08:01:23.411Z,20.40
2023-10-15T08:06:28.572Z,20.30
2023-10-15T08:11:32.939Z,20.30
2023-10-15T08:16:36.582Z,20.30
2023-10-15T08:21:41.849Z,20.30
2023-10-15T08:26:45.659Z,20.30
2023-10-15T08:31:49.165Z,20.30
2023-10-15T08:36:54.855Z,20.40
2023-10-15T08:42:01.631Z,20.30
2023-10-15T08:47:06.819Z,20.40
2023-10-15T08:52:11.672Z,20.40
2023-10-15T08:57:16.886Z,20.40
2023-10-15T09:02:21.233Z,20.40
2023-10-15T09:07:27.133Z,20.40
2023-10-15T09:12:30.656Z,20.50
2023-10-15T09:17:34.228Z,20.50
2023-10-15T09:22:40.494Z,20.50
2023-10-15T09:27:48.253Z,20.50
2023-10-15T09:32:52.262Z,20.50
2023-10-15T09:37:58.961Z,20.50
2023-10-15T09:43:02.452Z,20.50
2023-10-15T09:48:10.669Z,20.50
2023-10-15T09:53:18.069Z,20.50
2023-10-15T09:58:21.570Z,20.50
2023-10-15T10:04:00.968Z,20.50
2023-10-15T10:09:22.931Z,20.60
2023-10-15T10:14:51.637Z,20.60
2023-10-15T10:19:55.521Z,20.60
2023-10-15T10:25:01.062Z,20.70
2023-10-15T10:30:28.363Z,20.70
2023-10-15T10:35:44.641Z,20.70
2023-10-15T10:40:50.989Z,20.80
2023-10-15T10:45:58.858Z,20.80
2023-10-15T10:51:16.973Z,20.90
2023-10-15T10:56:21.917Z,20.90
2023-10-15T11:01:25.385Z,21.00
2023-10-15T11:06:29.008Z,21.10
2023-10-15T11:11:33.909Z,21.10
2023-10-15T11:16:39.206Z,21.10
2023-10-15T11:21:43.149Z,21.20
2023-10-15T11:26:48.358Z,21.20
2023-10-15T11:31:55.269Z,21.30
2023-10-15T11:36:59.045Z,21.30
2023-10-15T11:42:04.819Z,21.40
2023-10-15T11:47:13.465Z,21.40
2023-10-15T11:52:20.563Z,21.40
2023-10-15T11:57:27.292Z,21.40
2023-10-15T12:02:32.883Z,21.40
2023-10-15T12:07:38.666Z,21.40
2023-10-15T12:12:43.829Z,21.50
2023-10-15T12:17:47.583Z,21.40
2023-10-15T12:22:51.238Z,21.50
2023-10-15T12:27:56.322Z,21.50
2023-10-15T12:33:00.687Z,21.50
2023-10-15T12:38:04.469Z,21.50
2023-10-15T12:43:11.531Z,21.60
2023-10-15T12:48:17.376Z,21.60
2023-10-15T12:53:21.517Z,21.60
2023-10-15T12:58:26.694Z,21.70
2023-10-15T13:03:30.828Z,21.80
2023-10-15T13:08:34.629Z,21.80
2023-10-15T13:13:40.698Z,21.80
2023-10-15T13:18:45.606Z,21.80
2023-10-15T13:23:49.893Z,21.80
2023-10-15T13:28:55.343Z,21.70
2023-10-15T13:33:59.941Z,21.70
2023-10-15T13:39:05.929Z,21.70
2023-10-15T13:44:13.461Z,21.80
2023-10-15T13:49:18.708Z,21.80
2023-10-15T13:54:26.348Z,21.80
2023-10-15T13:59:32.889Z,21.80
2023-10-15T14:04:37.082Z,21.80
2023-10-15T14:09:42.212Z,21.70
2023-10-15T14:14:48.612Z,21.70
2023-10-15T14:19:53.054Z,21.70
2023-10-15T14:24:58.552Z,21.70
2023-10-15T14:30:04.269Z,21.70
2023-10-15T14:35:12.368Z,21.70
2023-10-15T14:40:17.200Z,21.70
2023-10-15T14:45:24.916Z,21.60
2023-10-15T14:50:30.798Z,21.70
2023-10-15T14:55:36.347Z,21.60
2023-10-15T15:00:44.162Z,21.60
2023-10-15T15:05:48.307Z,21.60
2023-10-15T15:10:52.886Z,21.50
2023-10-15T15:16:00.774Z,21.50
2023-10-15T15:21:08.038Z,21.40
2023-10-15T15:26:13.207Z,21.30
2023-10-15T15:31:19.626Z,21.30
2023-10-15T15:36:24.837Z,21.20
2023-10-15T15:41:33.871Z,21.10
2023-10-15T15:46:40.524Z,21.00
2023-10-15T15:51:47.571Z,21.00
2023-10-15T15:56:53.777Z,20.90
2023-10-15T16:02:02.563Z,20.80
2023-10-15T16:07:08.168Z,20.70
2023-10-15T16:12:15.416Z,20.70
2023-10-15T16:17:22.031Z,20.60
2023-10-15T16:22:27.969Z,20.50
2023-10-15T16:27:35.249Z,20.50
2023-10-15T16:32:45.024Z,20.40
2023-10-15T16:37:54.766Z,20.20
2023-10-15T16:43:01.275Z,20.20
2023-10-15T16:48:09.679Z,20.10
2023-10-15T16:53:14.519Z,20.00
2023-10-15T16:58:19.615Z,19.90
2023-10-15T17:03:28.568Z,19.80
2023-10-15T17:08:33.730Z,19.70
2023-10-15T17:13:39.398Z,19.60
2023-10-15T17:18:45.678Z,19.50
2023-10-15T17:23:50.734Z,19.40
2023-10-15T17:28:55.800Z,19.20
2023-10-15T17:34:03.231Z,19.10
2023-10-15T17:39:11.828Z,19.00
2023-10-15T17:44:19.688Z,18.90
2023-10-15T17:49:28.098Z,18.80
2023-10-15T17:54:34.561Z,18.80
2023-10-15T17:59:41.177Z,18.70
2023-10-15T18:04:47.667Z,18.60
2023-10-15T18:09:53.614Z,18.50
2023-10-15T18:15:01.236Z,18.40
2023-10-15T18:20:09.384Z,18.30
2023-10-15T18:25:17.461Z,18.20
2023-10-15T18:30:22.647Z,18.10
2023-10-15T18:35:28.157Z,18.10
2023-10-15T18:40:31.732Z,18.40
2023-10-15T18:45:37.647Z,18.80
2023-10-15T18:50:43.138Z,19.40
2023-10-15T18:55:47.345Z,19.70
2023-10-15T19:00:51.021Z,19.80
2023-10-15T19:06:02.154Z,19.70
2023-10-15T19:11:07.835Z,19.60
2023-10-15T19:16:11.942Z,19.40
2023-10-15T19:21:19.099Z,19.20
2023-10-15T19:26:22.690Z,18.90
2023-10-15T19:31:28.001Z,18.70
2023-10-15T19:36:33.305Z,18.60
2023-10-15T19:41:37.292Z,18.30
2023-10-15T19:46:42.657Z,18.20
2023-10-15T19:51:47.658Z,18.00
2023-10-15T19:56:53.295Z,17.90
2023-10-15T20:01:58.449Z,17.80
2023-10-15T20:07:05.928Z,17.80
2023-10-15T20:12:09.940Z,17.60
2023-10-15T20:17:13.679Z,17.60
2023-10-15T20:22:18.364Z,17.50
2023-10-15T20:27:22.006Z,17.40
2023-10-15T20:32:36.350Z,17.30
2023-10-15T20:37:49.593Z,17.20
2023-10-15T20:42:53.346Z,17.00
2023-10-15T20:47:56.954Z,16.90
2023-10-15T20:53:01.904Z,16.90
2023-10-15T20:58:05.545Z,16.80
2023-10-15T21:03:09.123Z,16.70
2023-10-15T21:08:15.037Z,16.70
2023-10-15T21:13:18.387Z,16.60
2023-10-15T21:18:21.898Z,16.40
2023-10-15T21:23:26.751Z,16.30
2023-10-15T21:28:30.183Z,16.20
2023-10-15T21:33:34.690Z,16.00
2023-10-15T21:38:40.393Z,15.90
2023-10-15T21:43:43.916Z,15.90
2023-10-15T21:48:48.432Z,15.80
2023-10-15T21:53:54.460Z,15.80
2023-10-15T21:58:58.631Z,15.80
2023-10-15T22:04:03.260Z,15.80
2023-10-15T22:09:12.449Z,15.80
2023-10-15T22:14:16.200Z,15.80
2023-10-15T22:19:23.424Z,15.80
2023-10-15T22:24:29.526Z,15.90
2023-10-15T22:29:40.864Z,15.80
2023-10-15T22:34:45.775Z,15.90
2023-10-15T22:39:50.827Z,15.90
2023-10-15T22:44:54.374Z,16.00
2023-10-15T22:49:57.841Z,16.00
2023-10-15T22:55:04.333Z,16.00
2023-10-15T23:00:12.393Z,15.90
2023-10-15T23:05:16.885Z,15.90
2023-10-15T23:10:22.307Z,16.00
2023-10-15T23:15:26.974Z,16.00
2023-10-15T23:20:36.012Z,16.00
2023-10-15T23:25:42.601Z,16.10
2023-10-15T23:30:46.382Z,16.10
2023-10-15T23:35:50.657Z,16.10
2023-10-15T23:40:55.565Z,16.20
2023-10-15T23:46:06.329Z,16.20
2023-10-15T23:51:13.133Z,16.20
2023-10-15T23:56:24.482Z,16.20
